createdAt,value
2018-12-06T00:00:00.459Z,105.77
2018-12-06T00:02:29.904Z,106.07
2018-12-06T00:04:59.300Z,107.70
2018-12-06T00:07:28.716Z,107.00
2018-12-06T00:09:58.133Z,107.43
2018-12-06T00:12:27.520Z,108.90
2018-12-06T00:15:32.881Z,110.20
2018-12-06T00:18:02.280Z,111.20
2018-12-06T00:20:31.727Z,111.03
2018-12-06T00:23:01.269Z,109.23
2018-12-06T00:25:30.765Z,110.70
2018-12-06T00:28:00.169Z,112.37
2018-12-06T00:30:40.291Z,110.77
2018-12-06T00:33:09.987Z,111.43
2018-12-06T00:35:39.409Z,113.67
2018-12-06T00:38:08.933Z,112.67
2018-12-06T00:40:38.326Z,111.97
2018-12-06T00:43:08.357Z,112.13
2018-12-06T00:45:37.851Z,110.83
2018-12-06T00:48:07.364Z,109.60
2018-12-06T00:50:36.771Z,110.67
2018-12-06T00:53:06.203Z,109.00
2018-12-06T00:55:35.621Z,110.40
2018-12-06T00:58:05.054Z,106.87
2018-12-06T01:00:34.439Z,110.27
2018-12-06T01:03:03.896Z,110.40
2018-12-06T01:05:33.296Z,108.20
2018-12-06T01:08:02.705Z,107.70
2018-12-06T01:10:32.110Z,108.50
2018-12-06T01:13:01.599Z,107.67
2018-12-06T01:15:31.080Z,107.50
2018-12-06T01:18:00.489Z,105.17
2018-12-06T01:20:29.904Z,103.73
2018-12-06T01:22:59.312Z,102.10
2018-12-06T01:25:28.736Z,103.13
2018-12-06T01:27:58.128Z,102.50
2018-12-06T01:30:27.551Z,103.80
2018-12-06T01:32:56.936Z,104.90
2018-12-06T01:35:26.370Z,100.70
2018-12-06T01:37:55.760Z,101.93
2018-12-06T01:40:25.186Z,100.90
2018-12-06T01:42:54.632Z,98.60
2018-12-06T01:45:24.048Z,100.13
2018-12-06T01:47:53.431Z,99.63
2018-12-06T01:50:23.995Z,98.33
2018-12-06T01:52:53.394Z,98.77
2018-12-06T01:55:22.822Z,95.93
2018-12-06T01:57:52.335Z,97.03
2018-12-06T02:00:21.780Z,97.40
2018-12-06T02:02:52.005Z,94.30
2018-12-06T02:05:21.429Z,94.27
2018-12-06T02:07:50.812Z,94.03
2018-12-06T02:10:20.229Z,90.70
2018-12-06T02:12:49.623Z,92.73
2018-12-06T02:15:19.013Z,90.97
2018-12-06T02:17:48.436Z,93.47
2018-12-06T02:20:17.843Z,89.97
2018-12-06T02:22:47.280Z,90.17
2018-12-06T02:25:16.668Z,91.23
2018-12-06T02:27:46.111Z,87.67
2018-12-06T02:30:15.501Z,88.80
2018-12-06T02:32:44.973Z,84.27
2018-12-06T02:35:14.438Z,85.00
2018-12-06T02:37:43.931Z,84.03
2018-12-06T02:40:14.665Z,81.97
2018-12-06T02:42:44.173Z,84.13
2018-12-06T02:45:13.762Z,82.47
2018-12-06T02:47:44.241Z,83.70
2018-12-06T02:50:13.693Z,83.60
2018-12-06T02:52:43.184Z,81.43
2018-12-06T02:55:12.639Z,81.00
2018-12-06T02:57:42.131Z,79.07
2018-12-06T03:00:11.589Z,75.60
2018-12-06T03:02:41.097Z,77.50
2018-12-06T03:05:10.549Z,77.13
2018-12-06T03:07:40.025Z,74.87
2018-12-06T03:10:09.477Z,75.13
2018-12-06T03:12:38.936Z,75.27
2018-12-06T03:15:08.380Z,75.70
2018-12-06T03:17:37.861Z,76.97
2018-12-06T03:20:07.845Z,77.17
2018-12-06T03:22:37.300Z,71.87
2018-12-06T03:25:06.766Z,71.50
2018-12-06T03:27:36.249Z,69.57
2018-12-06T03:30:06.386Z,72.90
2018-12-06T03:32:35.923Z,70.93
2018-12-06T03:35:05.529Z,67.57
2018-12-06T03:37:34.993Z,68.17
2018-12-06T03:40:04.555Z,69.57
2018-12-06T03:42:34.048Z,67.03
2018-12-06T03:45:03.528Z,64.03
2018-12-06T03:47:33.003Z,60.03
2018-12-06T03:50:02.481Z,63.13
2018-12-06T03:52:31.918Z,63.80
2018-12-06T03:55:01.389Z,67.03
2018-12-06T03:57:30.860Z,63.63
2018-12-06T04:00:00.345Z,64.47
2018-12-06T04:02:29.809Z,65.33
2018-12-06T04:04:59.300Z,65.33
2018-12-06T04:07:28.783Z,67.90
2018-12-06T04:09:58.276Z,65.83
2018-12-06T04:12:27.717Z,66.63
2018-12-06T04:14:57.197Z,67.77
2018-12-06T04:17:26.877Z,69.07
2018-12-06T04:19:56.363Z,66.50
2018-12-06T04:22:25.787Z,69.00
2018-12-06T04:24:55.193Z,69.53
2018-12-06T04:27:24.606Z,70.63
2018-12-06T04:29:54.025Z,70.53
2018-12-06T04:32:23.452Z,73.57
2018-12-06T04:34:52.844Z,71.70
2018-12-06T04:37:22.259Z,73.30
2018-12-06T04:39:51.649Z,76.20
2018-12-06T04:42:21.084Z,83.73
2018-12-06T04:44:50.508Z,84.03
2018-12-06T04:47:19.924Z,85.37
2018-12-06T04:49:49.306Z,81.10
2018-12-06T04:52:18.730Z,80.50
2018-12-06T04:54:48.144Z,79.17
2018-12-06T04:57:17.564Z,75.77
2018-12-06T04:59:47.069Z,77.57
2018-12-06T05:02:16.444Z,79.73
2018-12-06T05:04:45.860Z,77.17
2018-12-06T05:07:15.264Z,77.97
2018-12-06T05:09:44.652Z,78.23
2018-12-06T05:12:14.062Z,75.80
2018-12-06T05:14:43.452Z,76.77
2018-12-06T05:17:12.836Z,75.07
2018-12-06T05:19:42.250Z,75.30
2018-12-06T05:22:11.667Z,75.70
2018-12-06T05:24:41.065Z,74.13
2018-12-06T05:27:10.448Z,73.93
2018-12-06T05:29:39.854Z,71.93
2018-12-06T05:32:09.261Z,74.63
2018-12-06T05:34:38.680Z,71.87
2018-12-06T05:37:08.096Z,72.87
2018-12-06T05:39:37.496Z,70.33
2018-12-06T05:42:06.934Z,72.23
2018-12-06T05:44:36.384Z,69.43
2018-12-06T05:47:05.832Z,69.83
2018-12-06T05:49:35.292Z,67.90
2018-12-06T05:52:04.671Z,68.13
2018-12-06T05:54:34.315Z,67.93
2018-12-06T05:57:03.702Z,68.27
2018-12-06T05:59:33.113Z,66.40
2018-12-06T06:02:02.516Z,65.60
2018-12-06T06:04:31.908Z,65.37
2018-12-06T06:07:02.311Z,66.20
2018-12-06T06:09:31.811Z,65.60
2018-12-06T06:12:01.616Z,63.40
2018-12-06T06:14:31.016Z,64.83
2018-12-06T06:17:00.397Z,66.07
2018-12-06T06:19:29.776Z,61.77
2018-12-06T06:21:59.160Z,62.10
2018-12-06T06:24:28.564Z,63.67
2018-12-06T06:26:57.966Z,62.53
2018-12-06T06:29:27.348Z,64.93
2018-12-06T06:31:56.759Z,63.23
2018-12-06T06:34:26.870Z,63.17
2018-12-06T06:36:56.358Z,64.27
2018-12-06T06:39:25.750Z,63.97
2018-12-06T06:41:55.154Z,63.83
2018-12-06T06:44:24.593Z,66.37
2018-12-06T06:46:54.065Z,68.33
2018-12-06T06:49:23.464Z,68.10
2018-12-06T06:51:52.875Z,68.70
2018-12-06T06:54:22.260Z,70.33
2018-12-06T06:56:51.668Z,70.67
2018-12-06T06:59:26.121Z,71.43
2018-12-06T07:01:52.557Z,73.17
2018-12-06T07:04:21.966Z,72.77
2018-12-06T07:06:51.365Z,70.17
2018-12-06T07:09:20.760Z,70.37
2018-12-06T07:11:50.165Z,75.43
2018-12-06T07:14:19.567Z,75.27
2018-12-06T07:16:49.214Z,73.73
2018-12-06T07:19:18.623Z,74.07
2018-12-06T07:21:48.018Z,72.80
2018-12-06T07:24:17.434Z,70.87
2018-12-06T07:26:46.922Z,75.77
2018-12-06T07:29:16.607Z,73.97
2018-12-06T07:31:45.989Z,74.23
2018-12-06T07:34:15.426Z,74.40
2018-12-06T07:36:44.857Z,73.97
2018-12-06T07:39:14.260Z,75.40
2018-12-06T07:41:43.654Z,75.00
2018-12-06T07:44:13.080Z,76.10
2018-12-06T07:46:42.676Z,71.97
2018-12-06T07:49:12.073Z,74.77
2018-12-06T07:51:41.614Z,75.20
2018-12-06T07:54:11.149Z,74.10
2018-12-06T07:56:40.613Z,74.17
2018-12-06T07:59:10.009Z,73.57
2018-12-06T08:01:39.477Z,72.77
2018-12-06T08:04:08.900Z,71.67
2018-12-06T08:06:38.317Z,72.80
2018-12-06T08:09:09.551Z,72.97
2018-12-06T08:11:38.940Z,71.33
2018-12-06T08:14:08.336Z,70.53
2018-12-06T08:16:37.743Z,72.07
2018-12-06T08:19:07.124Z,71.27
2018-12-06T08:21:36.520Z,69.27
2018-12-06T08:24:05.938Z,70.47
2018-12-06T08:26:35.380Z,69.10
2018-12-06T08:29:04.773Z,68.83
2018-12-06T08:31:34.196Z,68.40
2018-12-06T08:34:06.398Z,70.17
2018-12-06T08:36:35.037Z,68.57
2018-12-06T08:39:05.253Z,69.23
2018-12-06T08:41:35.824Z,67.10
2018-12-06T08:44:05.261Z,68.43
2018-12-06T08:46:34.688Z,67.37
2018-12-06T08:49:04.077Z,66.97
2018-12-06T08:51:33.501Z,64.13
2018-12-06T08:54:02.909Z,64.10
2018-12-06T08:56:32.320Z,64.30
2018-12-06T08:59:01.704Z,65.30
2018-12-06T09:01:31.117Z,64.60
2018-12-06T09:04:00.558Z,64.37
2018-12-06T09:06:29.977Z,63.43
2018-12-06T09:08:59.380Z,65.10
2018-12-06T09:11:28.784Z,62.30
2018-12-06T09:13:58.168Z,61.30
2018-12-06T09:16:27.585Z,61.93
2018-12-06T09:18:56.988Z,63.77
2018-12-06T09:21:26.391Z,61.80
2018-12-06T09:23:55.761Z,61.43
2018-12-06T09:26:25.172Z,61.63
2018-12-06T09:28:54.582Z,59.23
2018-12-06T09:31:23.987Z,59.30
2018-12-06T09:34:08.765Z,60.23
2018-12-06T09:36:38.979Z,59.67
2018-12-06T09:39:09.813Z,59.37
2018-12-06T09:41:39.216Z,60.30
2018-12-06T09:44:08.734Z,56.63
2018-12-06T09:46:38.137Z,58.47
2018-12-06T09:49:07.554Z,57.00
2018-12-06T09:51:37.600Z,55.23
2018-12-06T09:54:07.184Z,56.87
2018-12-06T09:56:36.598Z,56.10
2018-12-06T09:59:06.255Z,55.00
2018-12-06T10:01:35.654Z,55.50
2018-12-06T10:04:05.930Z,54.17
2018-12-06T10:06:35.321Z,55.00
2018-12-06T10:09:06.926Z,55.13
2018-12-06T10:11:37.468Z,54.47
2018-12-06T10:14:06.895Z,53.43
2018-12-06T10:16:36.312Z,53.93
2018-12-06T10:19:05.736Z,53.67
2018-12-06T10:21:35.133Z,52.03
2018-12-06T10:24:04.544Z,51.97
2018-12-06T10:26:33.936Z,53.47
2018-12-06T10:29:03.344Z,51.13
2018-12-06T10:31:32.760Z,50.13
2018-12-06T10:34:02.141Z,51.93
2018-12-06T10:36:31.557Z,50.60
2018-12-06T10:39:00.948Z,49.40
2018-12-06T10:41:31.717Z,50.23
2018-12-06T10:44:01.168Z,47.23
2018-12-06T10:46:30.564Z,50.30
2018-12-06T10:48:59.949Z,49.07
2018-12-06T10:51:41.673Z,46.90
2018-12-06T10:54:11.202Z,47.37
2018-12-06T10:56:40.597Z,47.17
2018-12-06T10:59:09.981Z,46.13
2018-12-06T11:01:44.614Z,45.17
2018-12-06T11:04:14.000Z,45.93
2018-12-06T11:06:43.381Z,46.30
2018-12-06T11:09:12.764Z,45.40
2018-12-06T11:11:42.186Z,44.00
2018-12-06T11:14:11.581Z,47.00
2018-12-06T11:16:41.013Z,45.40
2018-12-06T11:19:10.416Z,43.67
2018-12-06T11:21:39.816Z,43.43
2018-12-06T11:24:09.252Z,43.63
2018-12-06T11:26:38.636Z,41.13
2018-12-06T11:29:08.066Z,42.37
2018-12-06T11:31:37.476Z,41.87
2018-12-06T11:34:06.993Z,42.17
2018-12-06T11:36:36.384Z,42.37
2018-12-06T11:39:08.300Z,42.07
2018-12-06T11:41:43.045Z,41.87
2018-12-06T11:44:09.231Z,40.97
2018-12-06T11:46:38.625Z,40.87
2018-12-06T11:49:08.188Z,39.27
2018-12-06T11:51:37.584Z,40.20
2018-12-06T11:54:07.102Z,40.67
2018-12-06T11:56:36.893Z,38.77
2018-12-06T11:59:07.220Z,40.63
2018-12-06T12:01:36.612Z,39.77
2018-12-06T12:04:06.096Z,38.67
2018-12-06T12:06:35.517Z,40.50
2018-12-06T12:09:07.564Z,37.73
2018-12-06T12:11:37.012Z,38.37
2018-12-06T12:14:07.548Z,37.97
2018-12-06T12:16:36.942Z,38.70
2018-12-06T12:19:06.352Z,37.57
2018-12-06T12:21:35.748Z,36.63
2018-12-06T12:24:06.531Z,36.60
2018-12-06T12:26:35.940Z,36.83
2018-12-06T12:29:05.706Z,36.53
2018-12-06T12:31:35.117Z,36.40
2018-12-06T12:34:04.536Z,37.60
2018-12-06T12:36:33.933Z,34.23
2018-12-06T12:39:03.364Z,34.57
2018-12-06T12:41:32.764Z,35.97
2018-12-06T12:44:02.163Z,35.50
2018-12-06T12:46:32.176Z,34.17
2018-12-06T12:49:01.571Z,34.17
2018-12-06T12:51:30.989Z,33.47
2018-12-06T12:54:00.401Z,33.80
2018-12-06T12:56:29.823Z,33.00
2018-12-06T12:58:59.208Z,33.93
2018-12-06T13:01:28.620Z,34.07
2018-12-06T13:03:58.033Z,32.70
2018-12-06T13:06:27.580Z,30.33
2018-12-06T13:08:57.853Z,32.10
2018-12-06T13:11:27.300Z,30.97
2018-12-06T13:14:40.900Z,31.03
2018-12-06T13:17:10.398Z,31.50
2018-12-06T13:19:40.413Z,30.63
2018-12-06T13:22:09.837Z,30.57
2018-12-06T13:24:39.253Z,31.47
2018-12-06T13:27:09.596Z,28.67
2018-12-06T13:29:38.976Z,29.30
2018-12-06T13:32:09.531Z,30.03
2018-12-06T13:34:38.932Z,30.07
2018-12-06T13:37:08.482Z,28.43
2018-12-06T13:39:37.900Z,29.13
2018-12-06T13:42:07.368Z,28.50
2018-12-06T13:44:36.787Z,28.57
2018-12-06T13:47:06.244Z,29.37
2018-12-06T13:49:36.974Z,28.30
2018-12-06T13:52:06.457Z,27.67
2018-12-06T13:54:35.917Z,28.87
2018-12-06T13:57:05.325Z,27.50
2018-12-06T13:59:34.782Z,27.80
2018-12-06T14:02:05.259Z,27.20
2018-12-06T14:04:34.766Z,25.37
2018-12-06T14:07:04.252Z,27.10
2018-12-06T14:09:33.639Z,27.57
2018-12-06T14:12:03.040Z,27.60
2018-12-06T14:14:32.439Z,26.97
2018-12-06T14:17:01.846Z,26.20
2018-12-06T14:19:31.248Z,26.27
2018-12-06T14:22:00.640Z,25.70
2018-12-06T14:24:30.067Z,24.00
2018-12-06T14:26:59.471Z,23.93
2018-12-06T14:29:28.880Z,25.00
2018-12-06T14:31:58.272Z,23.77
2018-12-06T14:34:27.697Z,25.20
2018-12-06T14:37:02.198Z,24.20
2018-12-06T14:39:28.984Z,24.33
2018-12-06T14:41:58.382Z,23.20
2018-12-06T14:44:27.820Z,24.37
2018-12-06T14:46:57.290Z,24.10
2018-12-06T14:49:26.796Z,23.30
2018-12-06T14:51:56.194Z,23.67
2018-12-06T14:54:25.637Z,22.57
2018-12-06T14:56:55.032Z,22.60
2018-12-06T14:59:24.436Z,22.60
2018-12-06T15:01:54.093Z,23.37
2018-12-06T15:04:23.533Z,23.10
2018-12-06T15:06:53.528Z,22.87
2018-12-06T15:09:22.932Z,22.23
2018-12-06T15:11:52.365Z,20.90
2018-12-06T15:14:21.905Z,22.60
2018-12-06T15:16:51.324Z,22.40
2018-12-06T15:19:20.709Z,21.93
2018-12-06T15:21:50.116Z,20.77
2018-12-06T15:24:19.548Z,22.30
2018-12-06T15:26:48.948Z,20.30
2018-12-06T15:29:18.353Z,20.53
2018-12-06T15:31:47.739Z,20.07
2018-12-06T15:34:17.152Z,22.40
2018-12-06T15:36:46.549Z,20.47
2018-12-06T15:39:15.933Z,19.57
2018-12-06T15:41:45.363Z,20.10
2018-12-06T15:44:14.829Z,20.20
2018-12-06T15:46:44.239Z,20.00
2018-12-06T15:49:13.620Z,20.67
2018-12-06T15:51:43.512Z,19.90
2018-12-06T15:54:12.928Z,20.23
2018-12-06T15:56:42.328Z,20.00
2018-12-06T15:59:11.770Z,19.73
2018-12-06T16:01:41.195Z,19.33
2018-12-06T16:04:10.610Z,19.37
2018-12-06T16:06:40.002Z,19.27
2018-12-06T16:09:09.452Z,19.73
2018-12-06T16:11:40.893Z,18.90
2018-12-06T16:14:10.297Z,19.13
2018-12-06T16:16:39.690Z,18.83
2018-12-06T16:19:09.123Z,18.87
2018-12-06T16:21:38.521Z,17.47
2018-12-06T16:24:08.141Z,16.90
2018-12-06T16:26:37.552Z,18.83
2018-12-06T16:29:06.995Z,18.30
2018-12-06T16:31:36.377Z,17.83
2018-12-06T16:34:05.879Z,17.87
2018-12-06T16:36:35.268Z,18.30
2018-12-06T16:39:07.100Z,17.73
2018-12-06T16:41:36.530Z,18.70
2018-12-06T16:44:06.152Z,17.27
2018-12-06T16:46:35.532Z,18.37
2018-12-06T16:49:10.040Z,16.67
2018-12-06T16:51:36.473Z,16.97
2018-12-06T16:54:06.996Z,18.83
2018-12-06T16:56:36.412Z,17.60
2018-12-06T16:59:05.857Z,17.53
2018-12-06T17:01:35.240Z,17.10
2018-12-06T17:04:04.804Z,17.60
2018-12-06T17:06:34.272Z,16.60
2018-12-06T17:09:05.708Z,16.53
2018-12-06T17:11:37.661Z,16.73
2018-12-06T17:14:07.145Z,16.37
2018-12-06T17:16:36.539Z,16.60
2018-12-06T17:19:05.948Z,16.07
2018-12-06T17:21:35.582Z,16.33
2018-12-06T17:24:06.788Z,16.30
2018-12-06T17:26:36.243Z,15.87
2018-12-06T17:29:06.677Z,16.60
2018-12-06T17:31:36.061Z,15.23
2018-12-06T17:34:05.500Z,16.33
2018-12-06T17:36:34.905Z,15.20
2018-12-06T17:39:05.609Z,15.30
2018-12-06T17:41:35.035Z,15.53
2018-12-06T17:44:04.469Z,15.00
2018-12-06T17:46:34.090Z,15.33
2018-12-06T17:49:03.493Z,15.80
2018-12-06T17:51:33.317Z,14.10
2018-12-06T17:54:02.757Z,16.07
2018-12-06T17:56:32.242Z,16.37
2018-12-06T17:59:01.636Z,14.57
2018-12-06T18:01:31.087Z,14.77
2018-12-06T18:04:00.512Z,14.77
2018-12-06T18:06:29.934Z,15.57
2018-12-06T18:08:59.628Z,15.33
2018-12-06T18:11:29.050Z,14.23
2018-12-06T18:13:58.453Z,15.37
2018-12-06T18:16:27.860Z,14.57
2018-12-06T18:18:57.297Z,15.43
2018-12-06T18:21:26.681Z,15.43
2018-12-06T18:23:56.097Z,16.00
2018-12-06T18:26:25.832Z,14.60
2018-12-06T18:28:55.253Z,14.83
2018-12-06T18:31:24.673Z,14.43
2018-12-06T18:33:54.125Z,14.90
2018-12-06T18:36:23.540Z,14.20
2018-12-06T18:38:52.983Z,14.17
2018-12-06T18:41:23.990Z,15.47
2018-12-06T18:43:53.433Z,15.53
2018-12-06T18:46:22.853Z,15.57
2018-12-06T18:48:52.521Z,14.73
2018-12-06T18:51:22.024Z,15.20
2018-12-06T18:53:51.781Z,14.50
2018-12-06T18:56:21.340Z,14.27
2018-12-06T18:58:51.808Z,13.80
2018-12-06T19:01:21.270Z,14.47
2018-12-06T19:03:50.698Z,14.17
2018-12-06T19:06:20.980Z,14.07
2018-12-06T19:08:50.456Z,14.20
2018-12-06T19:11:19.862Z,13.73
2018-12-06T19:13:49.318Z,14.00
2018-12-06T19:16:18.852Z,14.30
2018-12-06T19:18:48.337Z,13.67
2018-12-06T19:21:17.820Z,14.07
2018-12-06T19:23:47.238Z,14.00
2018-12-06T19:26:17.354Z,14.40
2018-12-06T19:28:46.754Z,14.67
2018-12-06T19:31:16.185Z,16.00
2018-12-06T19:33:45.850Z,14.83
2018-12-06T19:36:15.337Z,14.80
2018-12-06T19:38:44.782Z,13.97
2018-12-06T19:41:14.260Z,14.90
2018-12-06T19:43:44.714Z,13.90
2018-12-06T19:46:14.196Z,14.10
2018-12-06T19:48:45.044Z,12.67
2018-12-06T19:51:14.885Z,15.27
2018-12-06T19:53:44.300Z,20.87
2018-12-06T19:56:14.337Z,20.40
2018-12-06T19:58:43.766Z,22.23
2018-12-06T20:01:13.297Z,21.63
2018-12-06T20:03:42.735Z,23.77
2018-12-06T20:06:12.176Z,21.47
2018-12-06T20:08:42.030Z,21.87
2018-12-06T20:11:11.706Z,21.00
2018-12-06T20:13:41.305Z,20.67
2018-12-06T20:16:11.502Z,22.07
2018-12-06T20:18:41.232Z,20.57
2018-12-06T20:21:11.106Z,20.20
2018-12-06T20:23:41.181Z,21.27
2018-12-06T20:26:11.014Z,21.97
2018-12-06T20:28:40.648Z,21.80
2018-12-06T20:31:11.269Z,31.43
2018-12-06T20:33:41.335Z,39.67
2018-12-06T20:36:10.884Z,38.87
2018-12-06T20:38:40.668Z,41.53
2018-12-06T20:41:10.946Z,41.60
2018-12-06T20:43:40.994Z,44.67
2018-12-06T20:46:11.964Z,42.97
2018-12-06T20:48:42.276Z,43.97
2018-12-06T20:51:11.753Z,46.13
2018-12-06T20:53:41.207Z,48.30
2018-12-06T20:56:10.669Z,60.20
2018-12-06T20:58:41.817Z,59.83
2018-12-06T21:01:11.512Z,61.40
2018-12-06T21:03:41.065Z,65.00
2018-12-06T21:06:10.602Z,63.83
2018-12-06T21:08:41.350Z,63.90
2018-12-06T21:11:11.220Z,62.93
2018-12-06T21:13:40.837Z,63.73
2018-12-06T21:16:10.498Z,62.07
2018-12-06T21:18:41.975Z,62.90
2018-12-06T21:21:12.011Z,63.43
2018-12-06T21:23:41.785Z,61.90
2018-12-06T21:26:12.405Z,64.77
2018-12-06T21:28:41.897Z,63.30
2018-12-06T21:31:11.410Z,63.30
2018-12-06T21:33:43.809Z,63.10
2018-12-06T21:36:14.447Z,62.77
2018-12-06T21:38:44.285Z,63.77
2018-12-06T21:41:13.903Z,61.47
2018-12-06T21:43:43.427Z,60.80
2018-12-06T21:46:13.805Z,61.47
2018-12-06T21:48:43.233Z,62.47
2018-12-06T21:51:12.653Z,60.63
2018-12-06T21:53:42.057Z,60.83
2018-12-06T21:56:11.458Z,66.30
2018-12-06T21:58:40.873Z,64.40
2018-12-06T22:01:10.313Z,58.10
2018-12-06T22:03:39.723Z,58.13
2018-12-06T22:06:09.136Z,57.07
2018-12-06T22:08:38.560Z,57.83
2018-12-06T22:11:07.971Z,61.47
2018-12-06T22:13:37.376Z,57.87
2018-12-06T22:16:06.794Z,59.30
2018-12-06T22:18:36.193Z,59.73
2018-12-06T22:21:05.909Z,82.37
2018-12-06T22:23:35.345Z,95.43
2018-12-06T22:26:04.781Z,88.67
2018-12-06T22:28:34.465Z,93.37
2018-12-06T22:31:03.953Z,82.60
2018-12-06T22:33:33.389Z,91.33
2018-12-06T22:36:02.813Z,93.00
2018-12-06T22:38:34.249Z,82.07
2018-12-06T22:41:03.728Z,77.47
2018-12-06T22:43:33.129Z,84.10
2018-12-06T22:46:02.569Z,81.00
2018-12-06T22:48:32.006Z,87.10
2018-12-06T22:51:01.485Z,86.10
2018-12-06T22:53:30.912Z,85.37
2018-12-06T22:56:00.325Z,86.73
2018-12-06T22:58:29.745Z,88.30
2018-12-06T23:01:00.061Z,87.33
2018-12-06T23:03:32.152Z,87.10
2018-12-06T23:06:01.602Z,89.40
2018-12-06T23:08:31.041Z,92.10
2018-12-06T23:11:00.451Z,89.50
2018-12-06T23:13:29.885Z,88.07
2018-12-06T23:15:59.295Z,91.17
2018-12-06T23:18:28.721Z,90.67
2018-12-06T23:20:58.137Z,86.73
2018-12-06T23:23:27.597Z,89.73
2018-12-06T23:25:57.103Z,86.83
2018-12-06T23:28:27.480Z,88.17
2018-12-06T23:30:56.912Z,88.73
2018-12-06T23:33:31.928Z,87.43
2018-12-06T23:35:57.756Z,87.93
2018-12-06T23:38:27.565Z,84.87
2018-12-06T23:40:57.109Z,85.43
2018-12-06T23:43:26.537Z,83.27
2018-12-06T23:45:57.257Z,86.33
2018-12-06T23:48:27.753Z,82.60
2018-12-06T23:51:07.056Z,84.60
2018-12-06T23:53:37.525Z,82.47
2018-12-06T23:56:07.226Z,81.30
2018-12-06T23:58:36.629Z,78.93
